Time;durP1;ratioP1;P1;durP2;ratioP2;P2;SDS_P1;SDS_P2;PMS_P1;PMS_P2;Temp;Humidity;BMP_temperature;BMP_pressure;BME280_temperature;BME280_humidity;BME280_pressure;Samples;Min_cycle;Max_cycle;Signal;HPM_P1;HPM_P2
2022/08/19 00:02:12;;;;;;;46.70;43.80;;;22.50;72.50;;;;;;5051029;28;20582;-68
2022/08/19 00:04:39;;;;;;;49.57;46.53;;;22.40;72.60;;;;;;5045033;28;20588;-68
2022/08/19 00:07:07;;;;;;;45.67;42.97;;;22.40;72.70;;;;;;5044913;28;20451;-69
2022/08/19 00:09:34;;;;;;;46.47;43.73;;;22.40;72.60;;;;;;5047185;28;20993;-68
2022/08/19 00:12:01;;;;;;;45.67;42.87;;;22.40;72.60;;;;;;5032807;28;20566;-68
2022/08/19 00:14:31;;;;;;;46.00;43.20;;;22.50;72.50;;;;;;5044420;28;20517;-66
2022/08/19 00:16:58;;;;;;;47.57;44.27;;;22.50;72.40;;;;;;5038822;28;20460;-66
2022/08/19 00:19:25;;;;;;;46.90;44.00;;;22.50;72.30;;;;;;5043051;28;20562;-65
2022/08/19 00:21:53;;;;;;;45.73;43.00;;;22.60;72.20;;;;;;5046659;28;20567;-66
2022/08/19 00:24:20;;;;;;;45.20;42.40;;;22.40;72.60;;;;;;5046825;28;20456;-66
2022/08/19 00:26:47;;;;;;;46.47;43.67;;;22.30;73.00;;;;;;5031712;28;20483;-66
2022/08/19 00:29:16;;;;;;;45.07;42.27;;;22.30;72.90;;;;;;5036832;28;20550;-66
2022/08/19 00:31:45;;;;;;;46.67;43.70;;;22.40;72.80;;;;;;5041514;28;20486;-66
2022/08/19 00:34:14;;;;;;;46.10;43.40;;;22.40;72.80;;;;;;5043214;28;20462;-66
2022/08/19 00:36:42;;;;;;;46.37;43.67;;;22.40;72.70;;;;;;5051217;28;20912;-66
2022/08/19 00:39:09;;;;;;;45.83;42.97;;;22.40;72.60;;;;;;5048464;28;21941;-68
2022/08/19 00:41:36;;;;;;;46.30;43.60;;;22.30;72.80;;;;;;5049024;28;20562;-69
2022/08/19 00:44:06;;;;;;;47.23;44.43;;;22.30;72.90;;;;;;5048900;28;21032;-68
2022/08/19 00:46:36;;;;;;;45.30;42.60;;;22.30;73.00;;;;;;5050342;28;20498;-68
2022/08/19 00:49:12;;;;;;;45.17;42.30;;;22.30;73.00;;;;;;5050175;28;20528;-68
2022/08/19 00:51:39;;;;;;;43.90;40.80;;;22.30;73.00;;;;;;5045124;28;20503;-69
2022/08/19 00:54:06;;;;;;;45.27;42.23;;;22.30;73.20;;;;;;5049443;28;20474;-70
2022/08/19 00:56:34;;;;;;;46.70;43.80;;;22.40;72.90;;;;;;5048032;28;21221;-69
2022/08/19 00:59:02;;;;;;;47.00;43.87;;;22.40;72.90;;;;;;5050219;28;20501;-68
2022/08/19 01:01:29;;;;;;;46.20;43.30;;;22.30;73.00;;;;;;5045189;28;20574;-68
2022/08/19 01:03:56;;;;;;;48.77;45.67;;;22.30;73.30;;;;;;5030381;28;20962;-71
2022/08/19 01:06:25;;;;;;;47.13;44.33;;;22.30;73.40;;;;;;5047705;28;20457;-69
2022/08/19 01:08:52;;;;;;;47.23;44.43;;;22.30;73.30;;;;;;5050779;28;20466;-68
2022/08/19 01:11:19;;;;;;;46.10;43.27;;;22.40;73.10;;;;;;5043909;28;20505;-68
2022/08/19 01:13:47;;;;;;;47.20;44.37;;;22.30;73.00;;;;;;5030508;28;20511;-67
2022/08/19 01:16:15;;;;;;;47.70;44.63;;;22.30;73.10;;;;;;5031245;28;20512;-68
2022/08/19 01:18:43;;;;;;;46.63;43.83;;;22.40;73.10;;;;;;5042466;28;20813;-68
2022/08/19 01:21:17;;;;;;;49.50;46.50;;;22.30;73.20;;;;;;5043784;28;20483;-68
2022/08/19 01:23:47;;;;;;;46.83;43.93;;;22.30;73.30;;;;;;5043640;28;20546;-68
2022/08/19 01:26:16;;;;;;;48.00;45.10;;;22.30;73.30;;;;;;5045391;28;20553;-68
2022/08/19 01:28:45;;;;;;;48.53;45.53;;;22.30;73.20;;;;;;5036676;28;20555;-68
2022/08/19 01:31:20;;;;;;;48.87;45.93;;;22.30;73.20;;;;;;5043044;28;20564;-70
2022/08/19 01:33:48;;;;;;;47.50;44.57;;;22.30;73.20;;;;;;5049060;28;20458;-68
2022/08/19 01:36:22;;;;;;;49.13;45.60;;;22.30;73.40;;;;;;5043807;28;20495;-69
2022/08/19 01:38:51;;;;;;;48.40;45.33;;;22.40;73.20;;;;;;5030438;28;20455;-69
2022/08/19 01:41:19;;;;;;;48.80;45.73;;;22.40;73.00;;;;;;5043368;28;20480;-69
2022/08/19 01:43:46;;;;;;;48.47;45.60;;;22.40;73.10;;;;;;5038832;28;20456;-68
2022/08/19 01:46:13;;;;;;;47.07;44.27;;;22.40;73.10;;;;;;5041938;28;20460;-68
2022/08/19 01:48:43;;;;;;;47.80;44.77;;;22.40;73.20;;;;;;5049399;28;20542;-68
2022/08/19 01:51:11;;;;;;;47.43;44.53;;;22.30;73.40;;;;;;5041367;28;20985;-68
2022/08/19 01:53:39;;;;;;;47.70;44.80;;;22.20;73.60;;;;;;5048734;28;20863;-68
2022/08/19 01:56:08;;;;;;;48.20;45.00;;;22.20;73.70;;;;;;5045161;28;20479;-68
2022/08/19 01:58:42;;;;;;;48.50;45.40;;;22.30;73.60;;;;;;5030169;28;20555;-68
2022/08/19 02:01:09;;;;;;;48.87;45.77;;;22.30;73.60;;;;;;5042296;28;20556;-68
2022/08/19 02:03:36;;;;;;;48.03;45.10;;;22.30;73.60;;;;;;5032062;28;20468;-69
2022/08/19 02:06:05;;;;;;;49.07;45.90;;;22.30;73.70;;;;;;5030287;28;21074;-68
2022/08/19 02:08:34;;;;;;;49.00;45.93;;;22.20;73.90;;;;;;5037828;28;20452;-68
2022/08/19 02:11:01;;;;;;;51.90;48.70;;;22.20;74.00;;;;;;5030016;28;20476;-68
2022/08/19 02:13:29;;;;;;;47.20;44.40;;;22.20;74.10;;;;;;5047707;28;20546;-68
2022/08/19 02:15:57;;;;;;;51.73;48.43;;;22.20;74.00;;;;;;5033960;28;20535;-69
2022/08/19 02:18:24;;;;;;;61.07;57.47;;;22.20;74.00;;;;;;5041188;28;20826;-68
2022/08/19 02:20:51;;;;;;;50.60;47.50;;;22.10;74.30;;;;;;5045531;28;20488;-67
2022/08/19 02:23:18;;;;;;;50.90;47.50;;;22.00;74.90;;;;;;5040465;28;20459;-68
2022/08/19 02:25:49;;;;;;;54.23;50.67;;;22.00;75.00;;;;;;5046830;28;20554;-68
2022/08/19 02:28:16;;;;;;;58.20;54.63;;;22.00;75.10;;;;;;5047509;28;20471;-69
2022/08/19 02:30:44;;;;;;;48.77;45.40;;;21.90;75.20;;;;;;5045010;28;20564;-68
2022/08/19 02:33:11;;;;;;;47.90;44.90;;;22.00;75.10;;;;;;5041485;28;20826;-68
2022/08/19 02:35:42;;;;;;;59.60;55.87;;;21.90;75.30;;;;;;5043108;28;20550;-69
2022/08/19 02:38:27;;;;;;;46.13;43.07;;;21.90;75.30;;;;;;5046037;28;20456;-68
2022/08/19 02:40:55;;;;;;;49.27;46.07;;;21.90;75.50;;;;;;5044955;28;20487;-68
2022/08/19 02:43:23;;;;;;;48.53;45.53;;;21.90;75.40;;;;;;5040568;28;20467;-69
2022/08/19 02:45:51;;;;;;;50.47;47.23;;;22.00;75.20;;;;;;5046532;28;20553;-68
2022/08/19 02:48:21;;;;;;;49.40;46.10;;;21.90;75.50;;;;;;5046092;28;20459;-66
2022/08/19 02:50:52;;;;;;;49.47;46.13;;;21.80;75.90;;;;;;5047865;28;20514;-66
2022/08/19 02:53:19;;;;;;;54.07;50.67;;;21.80;75.90;;;;;;5049093;28;20464;-66
2022/08/19 02:55:47;;;;;;;54.93;51.33;;;21.90;75.80;;;;;;5049939;28;20551;-66
2022/08/19 02:58:16;;;;;;;48.57;45.47;;;21.90;75.80;;;;;;5047551;28;20535;-66
2022/08/19 03:00:44;;;;;;;52.87;49.27;;;21.90;75.80;;;;;;5048247;28;20478;-66
2022/08/19 03:03:13;;;;;;;51.17;47.70;;;21.90;75.80;;;;;;5044444;28;20890;-66
2022/08/19 03:05:41;;;;;;;56.30;52.50;;;21.60;76.70;;;;;;5046014;28;20463;-66
2022/08/19 03:08:10;;;;;;;70.87;66.47;;;21.60;76.80;;;;;;5037830;28;20493;-66
2022/08/19 03:10:43;;;;;;;57.20;53.23;;;21.60;76.70;;;;;;5049547;28;20483;-66
2022/08/19 03:13:10;;;;;;;60.80;56.80;;;21.60;76.90;;;;;;5050557;28;20461;-66
2022/08/19 03:15:40;;;;;;;52.77;49.27;;;21.50;77.40;;;;;;5048863;28;20460;-66
2022/08/19 03:18:07;;;;;;;59.00;55.17;;;21.40;77.70;;;;;;5045222;28;20547;-66
2022/08/19 03:20:41;;;;;;;52.40;48.93;;;21.50;77.50;;;;;;5049682;28;20553;-66
2022/08/19 03:23:08;;;;;;;69.93;65.40;;;21.50;77.30;;;;;;5046407;28;20455;-66
2022/08/19 03:25:40;;;;;;;54.30;50.40;;;21.50;77.40;;;;;;5049627;28;20885;-66
2022/08/19 03:28:07;;;;;;;56.57;52.77;;;21.50;77.50;;;;;;5038135;28;20589;-66
2022/08/19 03:30:34;;;;;;;82.60;77.30;;;21.50;77.70;;;;;;5041766;28;20948;-66
2022/08/19 03:33:01;;;;;;;63.30;58.83;;;21.50;77.50;;;;;;5045956;28;20535;-66
2022/08/19 03:35:28;;;;;;;56.80;52.60;;;21.50;77.50;;;;;;5045484;28;20540;-66
2022/08/19 03:37:57;;;;;;;54.60;50.90;;;21.30;78.10;;;;;;5046916;28;21350;-66
2022/08/19 03:40:24;;;;;;;68.03;63.00;;;21.30;78.40;;;;;;5039295;28;20510;-66
2022/08/19 03:42:50;;;;;;;56.47;52.20;;;21.20;78.80;;;;;;5046299;28;21158;-66
2022/08/19 03:45:19;;;;;;;62.90;58.30;;;21.10;78.90;;;;;;5049331;28;20496;-66
2022/08/19 03:47:46;;;;;;;63.97;59.53;;;21.10;78.90;;;;;;5039379;28;20526;-66
2022/08/19 03:50:13;;;;;;;73.00;68.30;;;21.00;79.40;;;;;;5040771;28;20455;-66
2022/08/19 03:52:40;;;;;;;63.63;59.43;;;21.00;79.20;;;;;;5049580;28;20532;-66
2022/08/19 03:55:09;;;;;;;59.00;54.60;;;21.10;79.10;;;;;;5050085;28;20550;-66
2022/08/19 03:57:36;;;;;;;60.83;56.47;;;21.10;78.90;;;;;;5048189;28;20559;-66
2022/08/19 04:00:06;;;;;;;57.87;53.90;;;21.10;78.90;;;;;;5041742;28;20936;-66
2022/08/19 04:02:33;;;;;;;89.47;84.17;;;21.20;78.80;;;;;;5049231;28;20467;-66
2022/08/19 04:05:00;;;;;;;58.87;54.90;;;21.10;78.80;;;;;;5047726;28;20538;-66
2022/08/19 04:07:27;;;;;;;77.87;72.60;;;21.00;79.10;;;;;;5041774;28;20491;-65
2022/08/19 04:09:54;;;;;;;112.03;106.17;;;21.00;79.20;;;;;;5049494;28;20551;-67
2022/08/19 04:12:22;;;;;;;59.77;55.67;;;21.00;79.30;;;;;;5048759;28;20483;-66
2022/08/19 04:14:49;;;;;;;59.37;55.17;;;21.00;79.50;;;;;;5036966;28;20546;-66
2022/08/19 04:17:16;;;;;;;64.57;60.20;;;21.10;79.00;;;;;;5047183;28;20540;-66
2022/08/19 04:19:44;;;;;;;73.80;68.90;;;21.10;78.90;;;;;;5049452;28;20550;-66
2022/08/19 04:22:11;;;;;;;78.90;73.90;;;21.10;78.70;;;;;;5049056;28;20471;-66
2022/08/19 04:24:38;;;;;;;104.13;98.43;;;21.10;78.80;;;;;;5048793;28;20464;-65
2022/08/19 04:27:06;;;;;;;60.23;55.93;;;21.00;79.00;;;;;;5042273;28;20546;-66
2022/08/19 04:29:35;;;;;;;80.17;74.87;;;21.00;78.90;;;;;;5041997;28;20451;-66
2022/08/19 04:32:02;;;;;;;63.00;58.23;;;20.90;79.50;;;;;;5038968;28;20559;-66
2022/08/19 04:34:30;;;;;;;56.63;52.67;;;20.90;79.40;;;;;;5036412;28;20551;-66
2022/08/19 04:36:59;;;;;;;60.40;56.30;;;20.90;79.50;;;;;;5043443;28;20571;-65
2022/08/19 04:42:38;;;;;;;81.53;76.20;;;20.90;79.50;;;;;;5046638;28;21372;-66
2022/08/19 04:45:03;;;;;;;63.77;59.07;;;20.90;79.70;;;;;;5042794;28;20947;-66
2022/08/19 04:47:32;;;;;;;61.83;57.33;;;20.90;79.70;;;;;;5049754;28;20462;-66
2022/08/19 04:49:59;;;;;;;62.70;58.40;;;21.00;79.40;;;;;;5047871;28;20849;-66
2022/08/19 04:52:26;;;;;;;64.07;59.73;;;21.10;79.00;;;;;;5043755;28;20951;-66
2022/08/19 04:54:55;;;;;;;68.23;62.63;;;21.10;78.80;;;;;;5037071;28;20533;-66
2022/08/19 04:57:22;;;;;;;62.60;58.00;;;21.10;78.90;;;;;;5045196;28;20477;-66
2022/08/19 04:59:49;;;;;;;83.10;77.80;;;21.20;78.60;;;;;;5037113;28;20807;-68
2022/08/19 05:02:17;;;;;;;77.37;72.30;;;21.10;78.90;;;;;;5044624;28;20582;-69
2022/08/19 05:04:44;;;;;;;80.77;75.87;;;21.00;79.20;;;;;;5049318;28;20494;-68
2022/08/19 05:07:11;;;;;;;62.23;57.93;;;21.10;79.00;;;;;;5045987;28;20452;-68
2022/08/19 05:09:38;;;;;;;72.00;67.10;;;21.10;78.90;;;;;;5038947;28;21258;-68
2022/08/19 05:12:06;;;;;;;62.83;58.30;;;21.00;79.20;;;;;;5047727;28;20566;-68
2022/08/19 05:14:33;;;;;;;71.57;66.40;;;20.90;79.70;;;;;;5039339;28;20460;-68
2022/08/19 05:17:02;;;;;;;69.90;65.27;;;20.80;80.00;;;;;;5040266;28;20452;-70
2022/08/19 05:22:34;;;;;;;66.17;61.60;;;21.00;79.70;;;;;;5047110;28;20474;-68
2022/08/19 05:25:02;;;;;;;76.10;70.80;;;20.90;79.60;;;;;;5042950;28;20466;-68
2022/08/19 05:27:29;;;;;;;64.03;59.30;;;21.00;79.60;;;;;;5048683;28;21042;-68
2022/08/19 05:29:56;;;;;;;65.70;61.10;;;21.10;79.00;;;;;;5043442;28;20952;-68
2022/08/19 05:32:23;;;;;;;62.60;58.03;;;21.10;79.20;;;;;;5047679;28;20697;-68
2022/08/19 05:34:51;;;;;;;62.63;58.23;;;21.00;79.20;;;;;;5045122;28;20462;-68
2022/08/19 05:37:18;;;;;;;61.22;56.92;;;20.90;79.70;;;;;;5047975;28;20544;-69
2022/08/19 05:39:45;;;;;;;76.00;71.10;;;21.00;79.50;;;;;;5046744;28;20288;-68
2022/08/19 05:42:12;;;;;;;62.30;57.83;;;21.20;79.10;;;;;;5047549;28;20567;-72
2022/08/19 05:44:43;;;;;;;58.43;53.80;;;21.20;78.90;;;;;;5038416;28;21036;-68
2022/08/19 05:47:11;;;;;;;57.47;53.57;;;21.20;79.20;;;;;;5042756;28;20988;-68
2022/08/19 05:49:38;;;;;;;80.57;75.40;;;21.10;79.00;;;;;;5046759;28;20802;-68
2022/08/19 05:52:10;;;;;;;59.63;55.70;;;21.20;79.00;;;;;;5036652;28;20472;-68
2022/08/19 05:54:40;;;;;;;58.20;54.00;;;21.10;79.10;;;;;;5042048;28;20459;-68
2022/08/19 05:57:07;;;;;;;62.07;57.60;;;21.00;79.20;;;;;;5048216;28;20456;-68
2022/08/19 05:59:35;;;;;;;65.17;60.37;;;21.00;79.60;;;;;;5036314;28;20954;-68
2022/08/19 06:02:02;;;;;;;58.23;53.97;;;20.80;80.10;;;;;;5046302;28;20484;-68
2022/08/19 06:04:29;;;;;;;58.67;54.47;;;20.70;80.40;;;;;;5033653;28;20555;-68
2022/08/19 06:06:58;;;;;;;63.30;57.83;;;20.80;80.40;;;;;;5032180;28;20470;-68
2022/08/19 06:09:26;;;;;;;62.07;57.67;;;20.80;80.20;;;;;;5040569;28;20772;-66
2022/08/19 06:11:55;;;;;;;74.77;69.60;;;20.80;80.20;;;;;;5043786;28;21056;-66
2022/08/19 06:14:23;;;;;;;63.57;59.00;;;20.90;79.80;;;;;;5039157;28;20472;-66
2022/08/19 06:16:52;;;;;;;79.30;74.50;;;21.00;79.40;;;;;;5037318;28;20457;-66
2022/08/19 06:19:23;;;;;;;70.30;65.43;;;21.00;79.50;;;;;;5033849;28;20974;-66
2022/08/19 06:21:52;;;;;;;73.00;68.17;;;21.10;79.20;;;;;;5033678;28;20531;-66
2022/08/19 06:24:23;;;;;;;61.50;57.40;;;21.10;79.20;;;;;;5046355;28;21055;-66
2022/08/19 06:26:53;;;;;;;62.00;57.77;;;21.10;79.10;;;;;;5040811;28;20455;-66
2022/08/19 06:29:23;;;;;;;59.50;55.50;;;21.00;79.50;;;;;;5031778;28;20550;-67
2022/08/19 06:31:52;;;;;;;60.20;55.80;;;21.10;79.20;;;;;;5035372;28;20922;-67
2022/08/19 06:34:20;;;;;;;60.90;56.67;;;21.20;79.20;;;;;;5034341;28;20539;-68
2022/08/19 06:36:50;;;;;;;63.70;59.33;;;21.20;79.00;;;;;;5046166;28;20515;-68
2022/08/19 06:39:20;;;;;;;66.20;61.53;;;21.10;79.50;;;;;;5037063;28;20623;-68
2022/08/19 06:41:49;;;;;;;59.00;54.97;;;21.00;79.60;;;;;;5030698;28;20571;-69
2022/08/19 06:44:18;;;;;;;57.90;54.13;;;21.00;80.10;;;;;;5043822;28;21259;-69
2022/08/19 06:46:46;;;;;;;73.60;68.93;;;21.10;79.90;;;;;;5037422;28;20459;-70
2022/08/19 06:49:13;;;;;;;82.00;77.10;;;21.10;79.90;;;;;;5041919;28;20594;-70
2022/08/19 06:51:43;;;;;;;61.03;56.67;;;21.10;80.20;;;;;;5046772;28;20495;-71
2022/08/19 06:54:10;;;;;;;61.07;57.03;;;21.00;80.40;;;;;;5047225;28;21167;-70
2022/08/19 06:56:38;;;;;;;59.87;55.70;;;21.00;80.70;;;;;;5035712;28;20464;-69
2022/08/19 06:59:07;;;;;;;71.60;66.77;;;20.90;81.10;;;;;;5034212;28;20466;-72
2022/08/19 07:01:38;;;;;;;85.13;79.60;;;21.00;81.00;;;;;;5046001;28;20566;-71
2022/08/19 07:04:06;;;;;;;64.20;59.40;;;21.00;81.30;;;;;;5035651;28;20456;-67
2022/08/19 07:06:34;;;;;;;62.77;58.77;;;21.00;80.80;;;;;;5043626;28;20463;-68
2022/08/19 07:09:01;;;;;;;76.73;71.57;;;20.90;81.60;;;;;;5035978;28;20546;-66
2022/08/19 07:11:28;;;;;;;63.83;59.33;;;20.90;81.70;;;;;;5034015;28;20474;-66
2022/08/19 07:13:58;;;;;;;72.77;68.07;;;21.00;81.50;;;;;;5042963;28;20953;-66
2022/08/19 07:16:27;;;;;;;58.63;54.53;;;21.00;81.10;;;;;;5042533;28;20561;-66
2022/08/19 07:18:56;;;;;;;57.90;54.00;;;20.90;81.20;;;;;;5047112;28;20463;-66
2022/08/19 07:21:27;;;;;;;63.57;59.20;;;20.90;81.70;;;;;;5039288;28;20579;-66
2022/08/19 07:23:55;;;;;;;65.10;60.90;;;21.00;81.60;;;;;;5045960;28;20466;-67
2022/08/19 07:26:24;;;;;;;67.90;63.40;;;21.00;81.30;;;;;;5044878;28;20491;-66
2022/08/19 07:28:51;;;;;;;61.80;57.40;;;21.10;80.90;;;;;;5040534;28;20507;-69
2022/08/19 07:31:21;;;;;;;77.70;72.93;;;21.00;81.20;;;;;;5047331;28;20570;-71
2022/08/19 07:33:50;;;;;;;73.77;69.07;;;20.90;81.30;;;;;;5042592;28;20463;-69
2022/08/19 07:36:21;;;;;;;80.57;75.57;;;20.90;81.30;;;;;;5047272;28;20470;-70
2022/08/19 07:38:50;;;;;;;77.27;72.67;;;21.10;81.00;;;;;;5048951;28;20543;-69
2022/08/19 07:41:20;;;;;;;77.73;72.73;;;21.20;80.60;;;;;;5040153;28;20482;-66
2022/08/19 07:43:48;;;;;;;77.07;72.30;;;21.20;80.00;;;;;;5038999;28;20539;-66
2022/08/19 07:46:16;;;;;;;62.90;58.97;;;21.20;80.20;;;;;;5043442;28;20456;-67
2022/08/19 07:48:45;;;;;;;59.27;55.27;;;21.10;80.20;;;;;;5037966;28;20572;-67
2022/08/19 07:51:13;;;;;;;56.93;53.10;;;21.10;80.50;;;;;;5046104;28;20479;-66
2022/08/19 07:53:43;;;;;;;72.50;67.53;;;21.10;80.60;;;;;;5046814;28;20546;-66
2022/08/19 07:56:10;;;;;;;56.70;52.57;;;21.00;80.70;;;;;;5045731;28;20557;-66
2022/08/19 07:58:39;;;;;;;58.40;54.27;;;21.00;81.00;;;;;;5047506;28;21004;-66
2022/08/19 08:01:07;;;;;;;75.10;70.37;;;21.10;80.60;;;;;;5039630;28;20837;-66
2022/08/19 08:09:12;;;;;;;60.47;56.27;;;20.90;80.90;;;;;;5044250;28;20454;-66
2022/08/19 08:11:39;;;;;;;64.77;60.40;;;21.00;81.00;;;;;;5041356;28;21526;-66
2022/08/19 08:14:06;;;;;;;53.73;50.40;;;21.10;80.40;;;;;;5042336;28;20546;-66
2022/08/19 08:16:36;;;;;;;60.33;56.50;;;21.00;80.50;;;;;;5039944;28;20558;-66
2022/08/19 08:19:05;;;;;;;66.07;61.83;;;20.90;80.90;;;;;;5045021;28;20554;-65
2022/08/19 08:21:32;;;;;;;54.73;51.03;;;21.00;80.70;;;;;;5044200;28;20976;-66
2022/08/19 08:23:59;;;;;;;64.90;60.53;;;21.10;80.40;;;;;;5046453;28;20463;-66
2022/08/19 08:26:28;;;;;;;57.40;53.83;;;21.10;80.40;;;;;;5036421;28;20449;-66
2022/08/19 08:28:56;;;;;;;62.07;57.93;;;21.20;80.30;;;;;;5038014;28;20473;-66
2022/08/19 08:31:23;;;;;;;58.37;54.57;;;21.10;80.80;;;;;;5043411;28;20532;-67
2022/08/19 08:33:50;;;;;;;65.07;60.63;;;21.30;79.90;;;;;;5044206;28;20946;-66
2022/08/19 08:36:17;;;;;;;61.10;57.10;;;21.30;79.90;;;;;;5045021;28;20856;-66
2022/08/19 08:38:46;;;;;;;55.57;51.77;;;21.40;79.50;;;;;;5041038;28;20459;-66
2022/08/19 08:41:23;;;;;;;72.87;68.47;;;21.40;79.80;;;;;;5047541;28;20486;-66
2022/08/19 08:43:53;;;;;;;70.17;65.90;;;21.50;79.70;;;;;;5047578;28;20972;-66
2022/08/19 08:46:26;;;;;;;61.57;57.50;;;21.40;79.70;;;;;;5041072;28;20535;-66
2022/08/19 08:48:58;;;;;;;58.73;54.63;;;21.40;79.30;;;;;;5040789;28;20549;-68
2022/08/19 08:51:28;;;;;;;68.07;63.87;;;21.50;79.40;;;;;;5031690;28;20560;-67
2022/08/19 08:53:57;;;;;;;62.10;57.80;;;21.50;79.70;;;;;;5045904;28;20537;-68
2022/08/19 08:56:24;;;;;;;60.37;56.30;;;21.40;79.90;;;;;;5044012;28;20540;-68
2022/08/19 08:59:02;;;;;;;52.70;49.00;;;21.30;80.30;;;;;;5043584;28;20550;-68
2022/08/19 09:01:29;;;;;;;58.70;54.70;;;21.30;80.60;;;;;;5037144;28;20485;-67
2022/08/19 09:03:56;;;;;;;67.90;63.70;;;21.50;80.10;;;;;;5035736;28;20563;-67
2022/08/19 09:06:32;;;;;;;55.87;51.87;;;21.60;79.60;;;;;;5046365;28;20455;-66
2022/08/19 09:09:04;;;;;;;51.90;48.37;;;21.60;79.80;;;;;;5038251;28;20562;-66
2022/08/19 09:11:54;;;;;;;55.53;51.93;;;21.70;79.60;;;;;;5043695;28;20487;-66
2022/08/19 09:14:35;;;;;;;71.83;67.50;;;21.60;79.90;;;;;;5043336;28;20820;-66
2022/08/19 09:17:03;;;;;;;66.17;61.83;;;21.60;80.10;;;;;;5045179;28;20513;-66
2022/08/19 09:19:30;;;;;;;51.40;48.07;;;21.60;80.30;;;;;;5036052;28;20985;-66
2022/08/19 09:21:58;;;;;;;53.93;50.37;;;21.70;80.00;;;;;;5038732;28;20479;-68
2022/08/19 09:24:24;;;;;;;53.87;50.27;;;21.90;79.50;;;;;;5043852;28;20479;-70
2022/08/19 09:26:51;;;;;;;53.30;50.07;;;22.00;79.10;;;;;;5045840;28;20555;-68
2022/08/19 09:29:18;;;;;;;52.07;48.17;;;22.10;78.80;;;;;;5042568;28;20467;-68
2022/08/19 09:31:47;;;;;;;58.43;54.77;;;22.20;78.50;;;;;;5035965;28;20564;-68
2022/08/19 09:34:14;;;;;;;62.70;58.70;;;22.20;78.40;;;;;;5043383;28;20531;-69
2022/08/19 09:36:41;;;;;;;53.67;50.27;;;22.30;77.90;;;;;;5037202;28;20945;-68
2022/08/19 09:39:08;;;;;;;49.60;46.50;;;22.40;77.50;;;;;;5037076;28;20468;-68
2022/08/19 09:41:35;;;;;;;53.53;49.93;;;22.40;77.60;;;;;;5040161;28;20475;-70
2022/08/19 09:44:02;;;;;;;60.03;56.13;;;22.50;77.00;;;;;;5035515;28;20476;-68
2022/08/19 09:46:31;;;;;;;53.43;50.10;;;22.50;77.10;;;;;;5040675;28;20463;-68
2022/08/19 09:49:01;;;;;;;52.03;48.50;;;22.50;77.40;;;;;;5035561;28;20946;-69
2022/08/19 09:51:29;;;;;;;61.53;57.80;;;22.60;77.10;;;;;;5037373;28;20559;-68
2022/08/19 09:54:01;;;;;;;53.40;50.10;;;22.50;77.20;;;;;;5038480;28;20452;-71
2022/08/19 09:56:28;;;;;;;52.23;48.80;;;22.60;77.10;;;;;;5039316;28;20456;-67
2022/08/19 09:58:55;;;;;;;50.20;47.17;;;22.60;76.90;;;;;;5043377;28;21017;-66
2022/08/19 10:01:25;;;;;;;66.13;62.23;;;22.70;76.50;;;;;;5040624;28;20534;-66
2022/08/19 10:03:54;;;;;;;65.57;61.80;;;22.70;76.90;;;;;;5040112;28;20480;-66
2022/08/19 10:06:23;;;;;;;48.17;45.03;;;22.70;76.70;;;;;;5037837;28;20455;-66
2022/08/19 10:08:51;;;;;;;49.47;46.43;;;22.70;76.50;;;;;;5044179;28;20547;-66
2022/08/19 10:11:20;;;;;;;47.77;44.57;;;22.70;76.40;;;;;;5040339;28;20475;-66
2022/08/19 10:13:47;;;;;;;54.57;51.10;;;22.90;76.20;;;;;;5045484;28;20454;-66
2022/08/19 10:16:17;;;;;;;47.43;44.23;;;23.00;75.70;;;;;;5043460;28;20536;-66
2022/08/19 10:18:44;;;;;;;49.30;46.13;;;23.00;75.70;;;;;;5041291;28;20458;-66
2022/08/19 10:21:15;;;;;;;47.30;44.10;;;23.10;75.00;;;;;;5044965;28;20482;-66
2022/08/19 10:23:46;;;;;;;50.53;47.33;;;23.10;75.00;;;;;;5039382;28;20845;-66
2022/08/19 10:26:15;;;;;;;65.67;61.97;;;23.00;75.00;;;;;;5042771;28;20455;-68
2022/08/19 10:28:42;;;;;;;51.67;48.60;;;23.10;75.00;;;;;;5036924;28;20559;-66
2022/08/19 10:31:11;;;;;;;56.17;52.87;;;23.10;74.80;;;;;;5041254;28;21026;-66
2022/08/19 10:33:39;;;;;;;62.17;58.47;;;23.20;74.20;;;;;;5035989;28;20461;-66
2022/08/19 10:36:10;;;;;;;48.10;45.30;;;23.20;74.70;;;;;;5032542;28;20458;-67
2022/08/19 10:38:37;;;;;;;45.87;42.80;;;23.00;74.80;;;;;;5042048;28;20453;-66
2022/08/19 10:41:11;;;;;;;54.37;51.10;;;23.00;75.30;;;;;;5046533;28;21140;-66
2022/08/19 10:43:39;;;;;;;44.73;42.00;;;23.10;75.00;;;;;;5034544;28;20575;-66
2022/08/19 10:46:07;;;;;;;59.40;55.87;;;23.20;74.60;;;;;;5037870;28;20493;-66
2022/08/19 10:48:34;;;;;;;65.87;62.17;;;23.20;74.50;;;;;;5042423;28;20484;-66
2022/08/19 10:53:46;;;;;;;55.00;51.90;;;23.00;75.00;;;;;;5041517;28;20452;-66
2022/08/19 10:58:59;;;;;;;56.13;52.93;;;23.40;74.30;;;;;;5039944;28;20463;-66
2022/08/19 11:01:27;;;;;;;49.53;46.73;;;23.40;73.20;;;;;;5037870;28;21033;-66
2022/08/19 11:03:54;;;;;;;53.00;49.97;;;23.10;73.60;;;;;;5038031;28;20489;-68
2022/08/19 11:06:21;;;;;;;47.63;44.20;;;23.00;74.00;;;;;;5038257;28;20894;-70
2022/08/19 11:08:48;;;;;;;47.27;44.73;;;23.10;73.70;;;;;;5035816;28;20515;-67
2022/08/19 11:11:16;;;;;;;45.60;43.00;;;23.10;73.90;;;;;;5039214;28;20505;-67
2022/08/19 11:13:44;;;;;;;57.10;54.00;;;23.20;73.40;;;;;;5037489;28;20458;-67
2022/08/19 11:16:13;;;;;;;51.37;48.40;;;23.30;73.20;;;;;;5042174;28;20500;-67
2022/08/19 11:18:43;;;;;;;42.37;39.87;;;23.30;72.60;;;;;;5044804;28;20460;-67
2022/08/19 11:21:13;;;;;;;57.07;54.07;;;23.40;72.80;;;;;;5046411;28;20472;-67
2022/08/19 11:23:41;;;;;;;47.93;45.03;;;23.60;72.00;;;;;;5047132;28;20559;-67
2022/08/19 11:26:08;;;;;;;41.37;39.13;;;23.70;71.60;;;;;;5039068;28;20561;-67
2022/08/19 11:28:38;;;;;;;42.43;39.93;;;23.80;71.40;;;;;;5039897;28;20552;-67
2022/08/19 11:31:05;;;;;;;44.23;41.63;;;24.00;70.90;;;;;;5043080;28;20562;-69
2022/08/19 11:33:33;;;;;;;63.83;60.37;;;24.20;70.20;;;;;;5042546;28;20531;-69
2022/08/19 11:36:02;;;;;;;46.43;43.90;;;24.30;69.90;;;;;;5047385;28;20473;-70
2022/08/19 11:38:30;;;;;;;44.60;42.10;;;24.50;69.60;;;;;;5048779;28;20467;-68
2022/08/19 11:40:58;;;;;;;46.93;44.20;;;24.60;68.80;;;;;;5041408;28;20485;-70
2022/08/19 11:43:26;;;;;;;50.50;47.40;;;24.50;69.10;;;;;;5036306;28;20471;-69
2022/08/19 11:45:55;;;;;;;59.67;56.37;;;24.40;69.00;;;;;;5041371;28;20511;-70
2022/08/19 11:48:23;;;;;;;47.23;44.57;;;24.40;68.80;;;;;;5037744;28;20471;-68
2022/08/19 11:50:50;;;;;;;48.13;45.23;;;24.50;68.70;;;;;;5043426;28;20479;-70
2022/08/19 11:53:19;;;;;;;46.77;44.07;;;24.60;67.80;;;;;;5041730;28;20950;-71
2022/08/19 11:55:46;;;;;;;46.70;44.00;;;24.50;68.20;;;;;;5038441;28;20557;-69
2022/08/19 11:58:13;;;;;;;42.03;39.90;;;24.60;68.20;;;;;;5032596;28;20459;-70
2022/08/19 12:00:41;;;;;;;45.27;43.07;;;24.70;67.80;;;;;;5036310;28;21052;-70
2022/08/19 12:03:09;;;;;;;50.13;47.47;;;24.70;67.70;;;;;;5038160;28;20995;-69
2022/08/19 12:05:38;;;;;;;47.80;45.20;;;24.70;67.10;;;;;;5035523;28;20502;-70
2022/08/19 12:08:05;;;;;;;59.63;56.27;;;24.60;67.40;;;;;;5045069;28;20470;-68
2022/08/19 12:10:32;;;;;;;43.70;41.30;;;24.80;66.80;;;;;;5039287;28;20488;-70
2022/08/19 12:12:59;;;;;;;44.23;41.67;;;24.70;66.90;;;;;;5036212;28;20456;-70
2022/08/19 12:15:27;;;;;;;45.60;43.00;;;24.60;67.30;;;;;;5036011;28;20491;-70
2022/08/19 12:17:56;;;;;;;62.80;59.57;;;24.50;67.60;;;;;;5040158;28;20466;-70
2022/08/19 12:20:26;;;;;;;60.33;57.17;;;24.60;67.30;;;;;;5038887;28;20916;-70
2022/08/19 12:22:52;;;;;;;50.83;48.23;;;24.70;67.30;;;;;;5037025;28;20451;-70
2022/08/19 12:25:20;;;;;;;45.70;43.40;;;24.80;67.10;;;;;;5040844;28;20987;-70
2022/08/19 12:27:47;;;;;;;48.03;45.53;;;24.80;66.70;;;;;;5041058;28;20464;-69
2022/08/19 12:30:15;;;;;;;45.27;42.57;;;24.90;66.40;;;;;;5037896;28;21055;-69
2022/08/19 12:32:42;;;;;;;43.40;40.70;;;25.00;66.30;;;;;;5037034;28;20535;-69
2022/08/19 12:35:11;;;;;;;43.00;40.70;;;24.90;66.30;;;;;;5046746;28;20467;-70
2022/08/19 12:37:44;;;;;;;59.70;56.47;;;24.90;66.40;;;;;;5046394;28;20494;-69
2022/08/19 12:40:12;;;;;;;45.57;43.07;;;24.80;66.90;;;;;;5038860;28;20470;-69
2022/08/19 12:42:41;;;;;;;44.90;42.43;;;24.80;66.90;;;;;;5047166;28;20455;-67
2022/08/19 12:45:10;;;;;;;53.17;49.90;;;24.60;68.20;;;;;;5036434;28;21011;-66
2022/08/19 12:47:38;;;;;;;63.97;60.47;;;24.60;68.90;;;;;;5038122;28;20448;-67
2022/08/19 12:50:08;;;;;;;52.20;49.20;;;24.60;69.50;;;;;;5039868;28;20550;-67